Fredonia, Pennsylvania
Current Conditions -  °F | °C
As of 12:15 AM on Sunday 26 Oct 2014 (Local Time) from KFKL Reporting Station
Few Clouds Few Clouds  
Wind Chill: 54°   Ceiling: Unl
Heat Index: 54°   Visibility: 10mi
Dew Point: 34°   Wind: 9mph
Humidity: 47%   Direction: 300°WNW
Pressure: 29.76"   Gusts: NA
Location:  41.32°N, 80.26°W
Report Text: KFKL 260415Z 30008KT 10SM FEW065 12/01 A2976 RMK AO1
Loading
Personal Weather Stations






























Interactive Weather Map
Tropical Storm Tracking
New forecast layout! Learn more

10-Day Weather Forecast

Advertisements
Track Severe Weather on mobile